Time;durP1;ratioP1;P1;durP2;ratioP2;P2;SDS_P1;SDS_P2;PMS_P1;PMS_P2;Temp;Humidity;BMP_temperature;BMP_pressure;BME280_temperature;BME280_humidity;BME280_pressure;Samples;Min_cycle;Max_cycle;Signal;HPM_P1;HPM_P2
2022/08/25 00:01:22;;;;;;;6.25;3.70;;;22.40;99.90;;;;;;5044948;28;20033;-74
2022/08/25 00:03:48;;;;;;;9.55;3.50;;;22.30;99.90;;;;;;5047430;28;20064;-74
2022/08/25 00:06:15;;;;;;;5.72;3.90;;;22.40;99.90;;;;;;5025972;28;20124;-75
2022/08/25 00:08:41;;;;;;;8.75;3.88;;;22.30;99.90;;;;;;5027020;28;20029;-75
2022/08/25 00:11:12;;;;;;;5.95;3.80;;;22.30;99.90;;;;;;5040655;28;20397;-74
2022/08/25 00:13:40;;;;;;;;;;;22.30;99.90;;;;;;5027147;28;20037;-75
2022/08/25 00:16:06;;;;;;;5.18;3.38;;;22.30;99.90;;;;;;5043848;28;19920;-74
2022/08/25 00:18:32;;;;;;;6.70;3.70;;;22.30;99.90;;;;;;5043426;28;20025;-75
2022/08/25 00:20:57;;;;;;;7.93;3.72;;;22.30;99.90;;;;;;5028233;28;20028;-74
2022/08/25 00:23:23;;;;;;;5.43;3.90;;;22.20;99.90;;;;;;5026419;28;21914;-74
2022/08/25 00:25:49;;;;;;;6.47;3.53;;;22.20;99.90;;;;;;5041918;28;20033;-74
2022/08/25 00:28:15;;;;;;;6.88;3.40;;;22.20;99.90;;;;;;5041842;28;20025;-74
2022/08/25 00:30:42;;;;;;;8.10;4.07;;;22.20;99.90;;;;;;5044625;28;20029;-74
2022/08/25 00:33:08;;;;;;;5.15;3.47;;;22.20;99.90;;;;;;5011160;28;20021;-74
2022/08/25 00:35:34;;;;;;;5.93;3.83;;;22.10;99.90;;;;;;5022220;28;20029;-74
2022/08/25 00:38:00;;;;;;;4.25;3.60;;;22.10;99.90;;;;;;5024126;28;20043;-74
2022/08/25 00:40:27;;;;;;;7.60;3.80;;;22.00;99.90;;;;;;5043489;28;20029;-75
2022/08/25 00:42:54;;;;;;;6.60;3.85;;;22.00;99.90;;;;;;5050319;28;20037;-74
2022/08/25 00:45:22;;;;;;;5.60;3.97;;;22.00;99.90;;;;;;5027804;28;20033;-74
2022/08/25 00:47:47;;;;;;;7.85;3.97;;;22.00;99.90;;;;;;5032993;28;20445;-75
2022/08/25 00:50:14;;;;;;;8.18;4.05;;;21.90;99.90;;;;;;5049047;28;20051;-75
2022/08/25 00:52:44;;;;;;;6.88;3.50;;;21.90;99.90;;;;;;5030112;28;20048;-75
2022/08/25 00:55:20;;;;;;;7.65;4.38;;;21.90;99.90;;;;;;5046900;28;20035;-75
2022/08/25 00:57:54;;;;;;;9.88;3.95;;;21.90;99.90;;;;;;5047808;28;20343;-75
2022/08/25 01:00:27;;;;;;;5.88;4.53;;;21.90;99.90;;;;;;5046490;28;20033;-75
2022/08/25 01:02:55;;;;;;;10.18;4.03;;;21.90;99.90;;;;;;5046029;28;20052;-74
2022/08/25 01:05:21;;;;;;;7.82;3.22;;;21.80;99.90;;;;;;5029299;28;20036;-74
2022/08/25 01:07:49;;;;;;;7.40;3.80;;;21.90;99.90;;;;;;5046659;28;20041;-75
2022/08/25 01:10:17;;;;;;;6.00;3.88;;;21.80;99.90;;;;;;5028132;28;20025;-74
2022/08/25 01:12:43;;;;;;;5.13;3.47;;;21.80;99.90;;;;;;5031902;28;20025;-74
2022/08/25 01:15:10;;;;;;;7.45;3.58;;;21.80;99.90;;;;;;5010752;28;20036;-75
2022/08/25 01:17:53;;;;;;;7.78;3.83;;;21.80;99.90;;;;;;5030262;28;20032;-74
2022/08/25 01:20:21;;;;;;;6.47;3.75;;;21.80;99.90;;;;;;5032475;28;20037;-74
2022/08/25 01:22:49;;;;;;;5.50;3.90;;;21.80;99.90;;;;;;5028751;28;20035;-74
2022/08/25 01:25:33;;;;;;;6.30;4.05;;;21.80;99.90;;;;;;5029924;28;20488;-74
2022/08/25 01:27:59;;;;;;;6.90;3.95;;;21.80;99.90;;;;;;5036002;28;20040;-74
2022/08/25 01:30:24;;;;;;;7.18;3.65;;;21.70;99.90;;;;;;5030640;28;20025;-74
2022/08/25 01:32:50;;;;;;;5.97;3.53;;;21.70;99.90;;;;;;5032954;28;20030;-74
2022/08/25 01:35:17;;;;;;;6.82;3.88;;;21.70;99.90;;;;;;5059798;28;20128;-74
2022/08/25 01:37:43;;;;;;;8.02;4.25;;;21.70;99.90;;;;;;5055126;28;20456;-73
2022/08/25 01:40:10;;;;;;;6.70;3.80;;;21.70;99.90;;;;;;5047104;28;20129;-75
2022/08/25 01:42:42;;;;;;;5.72;4.18;;;21.70;99.90;;;;;;5048196;28;20120;-74
2022/08/25 01:45:09;;;;;;;7.15;4.40;;;21.70;99.90;;;;;;5046224;28;20036;-74
2022/08/25 01:47:36;;;;;;;5.93;3.70;;;21.60;99.90;;;;;;5047617;28;20082;-75
2022/08/25 01:50:03;;;;;;;5.80;3.63;;;21.60;99.90;;;;;;5027480;28;20472;-74
2022/08/25 01:52:43;;;;;;;7.15;4.38;;;21.60;99.90;;;;;;5029192;28;20039;-74
2022/08/25 01:55:09;;;;;;;5.93;3.72;;;21.50;99.90;;;;;;5029298;28;20021;-75
2022/08/25 01:57:35;;;;;;;6.45;3.78;;;21.50;99.90;;;;;;5030930;28;20037;-74
2022/08/25 02:00:00;;;;;;;10.23;4.30;;;21.50;99.90;;;;;;5046561;28;20049;-74
2022/08/25 02:02:26;;;;;;;6.25;3.65;;;21.50;99.90;;;;;;5030789;28;20227;-74
2022/08/25 02:04:52;;;;;;;6.55;3.85;;;21.40;99.90;;;;;;5029753;28;20120;-74
2022/08/25 02:07:18;;;;;;;9.30;4.10;;;21.50;99.90;;;;;;5029578;28;20508;-74
2022/08/25 02:09:44;;;;;;;9.10;3.65;;;21.40;99.90;;;;;;5028662;28;20025;-74
2022/08/25 02:12:11;;;;;;;7.22;3.92;;;21.40;99.90;;;;;;5045117;28;20021;-74
2022/08/25 02:14:37;;;;;;;9.07;3.85;;;21.40;99.90;;;;;;5043519;28;20043;-75
2022/08/25 02:17:03;;;;;;;6.25;3.72;;;21.40;99.90;;;;;;5047887;28;20037;-75
2022/08/25 02:19:30;;;;;;;6.07;3.67;;;21.40;99.90;;;;;;5047325;28;20108;-74
2022/08/25 02:21:57;;;;;;;5.20;3.60;;;21.40;99.90;;;;;;5045193;28;20029;-75
2022/08/25 02:24:23;;;;;;;5.65;4.40;;;21.40;99.90;;;;;;5046944;28;20043;-75
2022/08/25 02:26:49;;;;;;;7.05;3.47;;;21.30;99.90;;;;;;5047384;28;20139;-74
2022/08/25 02:29:15;;;;;;;4.82;4.03;;;21.30;99.90;;;;;;5044294;28;20021;-75
2022/08/25 02:31:43;;;;;;;5.93;3.65;;;21.30;99.90;;;;;;5029972;28;20032;-74
2022/08/25 02:34:09;;;;;;;6.00;4.00;;;21.30;99.90;;;;;;5031264;28;20029;-75
2022/08/25 02:36:36;;;;;;;9.63;4.47;;;21.20;99.90;;;;;;5042050;28;20339;-75
2022/08/25 02:39:04;;;;;;;7.07;3.97;;;21.20;99.90;;;;;;5045161;28;20115;-75
2022/08/25 02:41:32;;;;;;;7.07;4.65;;;21.20;99.90;;;;;;5045049;28;20025;-75
2022/08/25 02:43:59;;;;;;;8.95;4.63;;;21.10;99.90;;;;;;5012138;28;20602;-75
2022/08/25 02:46:27;;;;;;;7.07;4.45;;;21.10;99.90;;;;;;5029056;28;20032;-74
2022/08/25 02:48:53;;;;;;;9.73;5.15;;;21.10;99.90;;;;;;5045046;28;20284;-75
2022/08/25 02:51:20;;;;;;;7.40;4.07;;;21.10;99.90;;;;;;5045112;28;20500;-74
2022/08/25 02:53:46;;;;;;;9.05;4.63;;;21.10;99.90;;;;;;5029878;28;20471;-74
2022/08/25 02:56:13;;;;;;;6.75;4.18;;;21.10;99.90;;;;;;5009774;28;20021;-74
2022/08/25 02:58:41;;;;;;;7.35;4.28;;;21.10;99.90;;;;;;5046284;28;20048;-74
2022/08/25 03:01:10;;;;;;;9.45;4.47;;;21.00;99.90;;;;;;5041807;28;20029;-74
2022/08/25 03:03:39;;;;;;;7.68;4.40;;;21.00;99.90;;;;;;5046091;28;20036;-74
2022/08/25 03:06:09;;;;;;;7.00;4.25;;;21.00;99.90;;;;;;5027948;28;20048;-74
2022/08/25 03:08:36;;;;;;;7.05;4.32;;;20.90;99.90;;;;;;5043887;28;20033;-74
2022/08/25 03:11:02;;;;;;;8.88;4.40;;;21.00;99.90;;;;;;5025570;28;20136;-73
2022/08/25 03:13:28;;;;;;;6.88;4.32;;;21.00;99.90;;;;;;5011115;28;20025;-74
2022/08/25 03:15:54;;;;;;;7.05;4.28;;;20.90;99.90;;;;;;5026832;28;20448;-75
2022/08/25 03:18:21;;;;;;;6.70;3.90;;;20.90;99.90;;;;;;5026960;28;20676;-75
2022/08/25 03:20:47;;;;;;;8.95;4.60;;;20.90;99.90;;;;;;5028988;28;20050;-75
2022/08/25 03:23:13;;;;;;;6.00;4.68;;;20.90;99.90;;;;;;5028016;28;20025;-74
2022/08/25 03:28:25;;;;;;;7.47;4.45;;;20.90;99.90;;;;;;5047354;28;20098;-75
2022/08/25 03:30:52;;;;;;;7.85;4.85;;;20.90;99.90;;;;;;5026361;28;20036;-75
2022/08/25 03:33:18;;;;;;;7.70;4.10;;;20.90;99.90;;;;;;5049796;28;20029;-74
2022/08/25 03:35:45;;;;;;;10.75;4.10;;;20.80;99.90;;;;;;5030024;28;20097;-75
2022/08/25 03:38:10;;;;;;;5.57;4.43;;;20.80;99.90;;;;;;5028898;28;20542;-74
2022/08/25 03:40:37;;;;;;;8.55;4.25;;;20.80;99.90;;;;;;5010012;28;20029;-75
2022/08/25 03:43:03;;;;;;;8.82;4.85;;;20.80;99.90;;;;;;5010617;28;20028;-75
2022/08/25 03:45:29;;;;;;;10.63;4.47;;;20.80;99.90;;;;;;5028958;28;20090;-75
2022/08/25 03:47:55;;;;;;;8.07;4.35;;;20.80;99.90;;;;;;5047949;28;20040;-75
2022/08/25 03:50:22;;;;;;;6.57;4.05;;;20.80;99.90;;;;;;5032464;28;20029;-75
2022/08/25 03:52:55;;;;;;;7.70;4.57;;;20.70;99.90;;;;;;5046802;28;20074;-75
2022/08/25 03:55:23;;;;;;;7.13;4.45;;;20.80;99.90;;;;;;5026768;28;20035;-75
2022/08/25 03:57:50;;;;;;;6.00;4.32;;;20.70;99.90;;;;;;5008750;28;20073;-76
2022/08/25 04:00:16;;;;;;;7.45;3.95;;;20.70;99.90;;;;;;5011735;28;20034;-75
2022/08/25 04:02:42;;;;;;;8.25;4.80;;;20.70;99.90;;;;;;5027552;28;20208;-75
2022/08/25 04:05:08;;;;;;;7.85;4.10;;;20.60;99.90;;;;;;5045376;28;20029;-75
2022/08/25 04:07:34;;;;;;;5.93;3.88;;;20.60;99.90;;;;;;5046886;28;20053;-75
2022/08/25 04:10:00;;;;;;;6.80;5.43;;;20.60;99.90;;;;;;5045877;28;20064;-73
2022/08/25 04:12:25;;;;;;;10.00;4.78;;;20.60;99.90;;;;;;5026639;28;20051;-73
2022/08/25 04:14:51;;;;;;;7.82;4.63;;;20.60;99.90;;;;;;5027618;28;20037;-74
2022/08/25 04:17:17;;;;;;;7.47;4.50;;;20.60;99.90;;;;;;5045569;28;20812;-74
2022/08/25 04:19:43;;;;;;;8.50;4.60;;;20.50;99.90;;;;;;5046468;28;20112;-74
2022/08/25 04:22:09;;;;;;;7.25;4.60;;;20.50;99.90;;;;;;5026915;28;20021;-74
2022/08/25 04:24:35;;;;;;;7.13;4.70;;;20.50;99.90;;;;;;5047190;28;20143;-74
2022/08/25 04:27:00;;;;;;;5.40;4.28;;;20.50;99.90;;;;;;5027351;28;20025;-74
2022/08/25 04:29:26;;;;;;;5.93;4.32;;;20.50;99.90;;;;;;5029193;28;20080;-73
2022/08/25 04:31:53;;;;;;;9.40;5.35;;;20.50;99.90;;;;;;5042374;28;20555;-74
2022/08/25 04:34:22;;;;;;;7.75;4.85;;;20.50;99.90;;;;;;5029362;28;20029;-74
2022/08/25 04:36:49;;;;;;;9.30;5.18;;;20.40;99.90;;;;;;5025713;28;20021;-74
2022/08/25 04:39:16;;;;;;;9.30;4.25;;;20.50;99.90;;;;;;5030072;28;20087;-73
2022/08/25 04:41:41;;;;;;;9.88;4.70;;;20.50;99.90;;;;;;5043202;28;20110;-75
2022/08/25 04:44:07;;;;;;;6.95;5.05;;;20.50;99.90;;;;;;5045362;28;20112;-74
2022/08/25 04:46:34;;;;;;;10.35;4.78;;;20.50;99.90;;;;;;5044107;28;20057;-75
2022/08/25 04:49:01;;;;;;;8.75;4.80;;;20.50;99.90;;;;;;5045173;28;20071;-74
2022/08/25 04:51:34;;;;;;;6.60;4.30;;;20.50;99.90;;;;;;5027637;28;20789;-74
2022/08/25 04:54:04;;;;;;;7.57;4.93;;;20.60;99.90;;;;;;5028872;28;20036;-74
2022/08/25 04:56:32;;;;;;;8.88;5.25;;;20.60;99.90;;;;;;5026944;28;20025;-74
2022/08/25 04:59:02;;;;;;;5.82;4.55;;;20.60;99.90;;;;;;5028330;28;20107;-75
2022/08/25 05:01:28;;;;;;;7.90;5.20;;;20.60;99.90;;;;;;5044862;28;20029;-74
2022/08/25 05:03:58;;;;;;;11.82;5.30;;;20.50;99.90;;;;;;5024099;28;20876;-72
2022/08/25 05:06:24;;;;;;;7.60;4.90;;;20.50;99.90;;;;;;5043654;28;20028;-73
2022/08/25 05:08:50;;;;;;;8.10;5.05;;;20.50;99.90;;;;;;5046150;28;20388;-73
2022/08/25 05:11:17;;;;;;;9.30;5.50;;;20.50;99.90;;;;;;5044286;28;20883;-73
2022/08/25 05:13:48;;;;;;;9.60;5.03;;;20.50;99.90;;;;;;5028585;28;20092;-74
2022/08/25 05:16:15;;;;;;;26.02;11.02;;;20.60;99.90;;;;;;5043961;28;20025;-74
2022/08/25 05:18:41;;;;;;;10.68;6.10;;;20.60;99.90;;;;;;5025080;28;20121;-73
2022/08/25 05:21:10;;;;;;;10.77;5.82;;;20.60;99.90;;;;;;5026359;28;20115;-74
2022/08/25 05:23:37;;;;;;;8.82;4.78;;;20.60;99.90;;;;;;5026120;28;20048;-72
2022/08/25 05:26:06;;;;;;;8.77;4.45;;;20.60;99.90;;;;;;5009480;28;20029;-73
2022/08/25 05:28:32;;;;;;;8.45;4.25;;;20.70;99.90;;;;;;5028730;28;20036;-72
2022/08/25 05:31:00;;;;;;;9.38;5.18;;;20.90;99.90;;;;;;5047024;28;20120;-72
2022/08/25 05:33:30;;;;;;;8.05;4.90;;;21.00;99.90;;;;;;5027437;28;20057;-72
2022/08/25 05:35:56;;;;;;;7.72;5.47;;;20.90;99.90;;;;;;5051168;28;20017;-74
2022/08/25 05:38:22;;;;;;;12.98;5.72;;;20.80;99.90;;;;;;5029967;28;20021;-72
2022/08/25 05:41:03;;;;;;;8.55;5.05;;;20.70;99.90;;;;;;5029112;28;20103;-71
2022/08/25 05:43:29;;;;;;;9.90;5.32;;;20.70;99.90;;;;;;5045641;28;20029;-71
2022/08/25 05:45:56;;;;;;;10.05;5.35;;;20.70;99.90;;;;;;5025478;28;20571;-71
2022/08/25 05:48:22;;;;;;;8.27;6.10;;;20.60;99.90;;;;;;5048464;28;20481;-71
2022/08/25 05:50:57;;;;;;;8.48;5.85;;;20.70;99.90;;;;;;5047019;28;20036;-71
2022/08/25 05:53:24;;;;;;;9.90;5.75;;;20.70;99.90;;;;;;5047257;28;20025;-71
2022/08/25 05:55:52;;;;;;;9.93;6.05;;;20.70;99.90;;;;;;5046836;28;20151;-70
2022/08/25 05:58:19;;;;;;;13.27;8.48;;;20.70;99.90;;;;;;5030715;28;20032;-71
2022/08/25 06:00:45;;;;;;;9.00;6.63;;;20.60;99.90;;;;;;5046922;28;20468;-71
2022/08/25 06:03:11;;;;;;;9.48;7.18;;;20.60;99.90;;;;;;5047750;28;20031;-71
2022/08/25 06:05:37;;;;;;;10.70;6.95;;;20.60;99.90;;;;;;5047260;28;20127;-69
2022/08/25 06:08:03;;;;;;;13.75;9.00;;;20.70;99.90;;;;;;5029574;28;20029;-71
2022/08/25 06:10:29;;;;;;;11.23;8.75;;;20.60;99.90;;;;;;5042163;28;20416;-70
2022/08/25 06:12:55;;;;;;;15.95;9.55;;;20.60;99.90;;;;;;5046870;28;20029;-70
2022/08/25 06:15:23;;;;;;;10.25;6.10;;;20.60;99.90;;;;;;5047041;28;20025;-70
2022/08/25 06:17:50;;;;;;;13.68;8.15;;;20.70;99.90;;;;;;5028773;28;20036;-69
2022/08/25 06:20:21;;;;;;;18.33;10.52;;;21.10;99.90;;;;;;5031800;28;20029;-70
2022/08/25 06:22:47;;;;;;;15.23;10.25;;;21.00;99.90;;;;;;5046536;28;20037;-70
2022/08/25 06:25:14;;;;;;;13.93;9.90;;;20.90;99.90;;;;;;5045991;28;20033;-70
2022/08/25 06:27:40;;;;;;;15.63;11.27;;;20.90;99.90;;;;;;5048232;28;20047;-70
2022/08/25 06:30:10;;;;;;;16.85;11.45;;;20.90;99.90;;;;;;5027528;28;20029;-71
2022/08/25 06:32:40;;;;;;;19.38;11.70;;;20.80;99.90;;;;;;5028306;28;20029;-71
2022/08/25 06:35:10;;;;;;;16.20;10.32;;;20.80;99.90;;;;;;5048370;28;20028;-71
2022/08/25 06:37:36;;;;;;;17.00;11.40;;;20.80;99.90;;;;;;5046283;28;20100;-71
2022/08/25 06:40:05;;;;;;;16.85;10.68;;;20.80;99.90;;;;;;5043114;28;20032;-70
2022/08/25 06:42:31;;;;;;;15.25;11.02;;;20.80;99.90;;;;;;5029472;28;20059;-69
2022/08/25 06:44:56;;;;;;;14.90;10.60;;;20.80;99.90;;;;;;5027064;28;20134;-71
2022/08/25 06:47:22;;;;;;;14.18;10.50;;;20.80;99.90;;;;;;5043972;28;20481;-71
2022/08/25 06:49:47;;;;;;;17.83;12.30;;;20.80;99.90;;;;;;5028281;28;20509;-69
2022/08/25 06:52:14;;;;;;;17.17;11.40;;;20.80;99.90;;;;;;5049678;28;20471;-70
2022/08/25 06:54:40;;;;;;;16.90;10.68;;;20.80;99.90;;;;;;5040585;28;20036;-71
2022/08/25 06:57:06;;;;;;;18.85;11.95;;;20.80;99.90;;;;;;5017971;28;20021;-71
2022/08/25 06:59:35;;;;;;;13.98;10.63;;;20.80;99.90;;;;;;5045224;28;20040;-71
2022/08/25 07:02:03;;;;;;;15.05;10.88;;;20.90;99.90;;;;;;5024266;28;20032;-71
2022/08/25 07:04:29;;;;;;;15.18;9.90;;;21.00;99.90;;;;;;5042704;28;20162;-70
2022/08/25 07:06:54;;;;;;;19.55;11.15;;;21.10;99.90;;;;;;5030371;28;20124;-70
2022/08/25 07:09:20;;;;;;;14.38;9.95;;;21.20;99.90;;;;;;5045792;28;20037;-70
2022/08/25 07:11:46;;;;;;;13.45;9.60;;;21.30;99.90;;;;;;5028547;28;20040;-71
2022/08/25 07:14:15;;;;;;;15.73;10.05;;;21.30;99.90;;;;;;5015690;28;20389;-70
2022/08/25 07:16:41;;;;;;;18.02;11.70;;;21.30;99.90;;;;;;5034040;28;20034;-71
2022/08/25 07:19:08;;;;;;;14.02;10.15;;;21.30;99.90;;;;;;5026187;28;20052;-74
2022/08/25 07:21:36;;;;;;;15.55;10.77;;;21.20;99.90;;;;;;5030057;28;20596;-71
2022/08/25 07:24:08;;;;;;;11.57;9.80;;;21.30;99.90;;;;;;5046411;28;20085;-76
2022/08/25 07:26:34;;;;;;;12.70;9.98;;;21.20;99.90;;;;;;5026771;28;20032;-75
2022/08/25 07:29:06;;;;;;;16.83;11.07;;;21.30;99.90;;;;;;5011260;28;20048;-75
2022/08/25 07:31:31;;;;;;;14.15;10.27;;;21.20;99.90;;;;;;5042333;28;21822;-75
2022/08/25 07:36:42;;;;;;;15.52;9.70;;;21.20;99.90;;;;;;5041959;28;21782;-75
2022/08/25 07:39:08;;;;;;;14.52;10.38;;;21.30;99.90;;;;;;5010612;28;20033;-74
2022/08/25 07:41:40;;;;;;;13.32;9.13;;;21.30;99.90;;;;;;5025300;28;20087;-75
2022/08/25 07:44:07;;;;;;;12.02;9.18;;;21.40;99.90;;;;;;5042134;28;20021;-75
2022/08/25 07:46:32;;;;;;;16.40;10.73;;;21.40;99.90;;;;;;5020741;28;20907;-75
2022/08/25 07:48:58;;;;;;;12.55;10.20;;;21.50;99.90;;;;;;5027882;28;20112;-75
2022/08/25 07:51:24;;;;;;;12.27;10.07;;;21.60;99.90;;;;;;5045209;28;20029;-76
2022/08/25 07:53:50;;;;;;;13.82;10.38;;;21.50;99.90;;;;;;5045877;28;20036;-76
2022/08/25 07:56:17;;;;;;;14.02;10.40;;;21.60;99.90;;;;;;5027209;28;20575;-75
2022/08/25 07:58:45;;;;;;;18.00;11.48;;;21.60;99.90;;;;;;5047444;28;20029;-75
2022/08/25 08:01:19;;;;;;;16.13;11.38;;;21.60;99.90;;;;;;5043985;28;20031;-75
2022/08/25 08:03:45;;;;;;;12.65;10.27;;;21.60;99.90;;;;;;5027985;28;20033;-75
2022/08/25 08:06:14;;;;;;;14.80;10.15;;;21.60;99.90;;;;;;5029051;28;20116;-75
2022/08/25 08:08:44;;;;;;;15.55;10.93;;;21.60;99.90;;;;;;5026667;28;20053;-75
2022/08/25 08:11:21;;;;;;;15.57;10.40;;;21.60;99.90;;;;;;5046108;28;20028;-75
2022/08/25 08:13:48;;;;;;;13.27;10.50;;;21.60;99.90;;;;;;5025099;28;20358;-75
2022/08/25 08:16:16;;;;;;;14.23;10.48;;;21.50;99.90;;;;;;5045106;28;20173;-75
2022/08/25 08:18:44;;;;;;;13.13;10.23;;;21.40;99.90;;;;;;5028532;28;20044;-75
2022/08/25 08:21:21;;;;;;;12.52;9.45;;;21.40;99.90;;;;;;5045362;28;20033;-75
2022/08/25 08:23:48;;;;;;;13.68;9.23;;;21.50;99.90;;;;;;5042718;28;20408;-75
2022/08/25 08:26:14;;;;;;;11.68;9.32;;;21.60;99.90;;;;;;5042586;28;20512;-75
2022/08/25 08:28:40;;;;;;;11.15;8.48;;;21.60;99.90;;;;;;5025930;28;20039;-75
2022/08/25 08:31:06;;;;;;;13.63;8.85;;;21.70;99.90;;;;;;5024824;28;21655;-76
2022/08/25 08:33:33;;;;;;;10.20;8.60;;;21.80;99.90;;;;;;5045254;28;20021;-75
2022/08/25 08:36:05;;;;;;;11.25;8.57;;;22.00;99.90;;;;;;5044759;28;20048;-75
2022/08/25 08:38:31;;;;;;;13.30;8.30;;;22.00;99.90;;;;;;5046301;28;20065;-75
2022/08/25 08:44:10;;;;;;;13.32;8.45;;;22.10;99.90;;;;;;5044530;28;20111;-76
2022/08/25 08:46:55;;;;;;;14.90;8.10;;;22.10;99.90;;;;;;5045033;28;20619;-76
2022/08/25 08:49:32;;;;;;;11.80;8.63;;;22.20;99.90;;;;;;5019352;28;20599;-75
2022/08/25 08:52:00;;;;;;;11.13;9.85;;;22.20;99.90;;;;;;5025449;28;20035;-75
2022/08/25 08:54:31;;;;;;;13.65;9.50;;;22.10;99.90;;;;;;5041386;28;20781;-75
2022/08/25 08:57:10;;;;;;;13.73;9.02;;;22.00;99.90;;;;;;5026518;28;20041;-75
2022/08/25 08:59:48;;;;;;;15.45;9.63;;;21.90;99.90;;;;;;5028334;28;20036;-75
2022/08/25 09:02:38;;;;;;;12.90;9.45;;;22.00;99.90;;;;;;5044043;28;20021;-75
2022/08/25 09:05:10;;;;;;;11.38;7.75;;;22.00;99.90;;;;;;5031749;28;20032;-75
2022/08/25 09:07:59;;;;;;;12.90;9.10;;;22.00;99.90;;;;;;5024184;28;20041;-75
2022/08/25 09:10:34;;;;;;;9.57;8.15;;;22.00;99.90;;;;;;5047020;28;20021;-76
2022/08/25 09:14:00;;;;;;;12.35;9.43;;;22.10;99.90;;;;;;5047022;28;20024;-76
2022/08/25 09:19:30;;;;;;;13.50;8.50;;;22.10;99.90;;;;;;4968489;28;20050;-76
2022/08/25 09:22:32;;;;;;;12.73;8.20;;;22.10;99.90;;;;;;4968859;28;20070;-75
2022/08/25 09:25:13;;;;;;;11.07;9.30;;;22.20;99.90;;;;;;4967267;28;20392;-75
2022/08/25 09:27:56;;;;;;;12.50;9.73;;;22.30;99.90;;;;;;4968035;28;20039;-75
2022/08/25 09:30:22;;;;;;;11.02;9.25;;;22.30;99.90;;;;;;4952942;28;20158;-74
2022/08/25 09:32:50;;;;;;;12.38;8.82;;;22.20;99.90;;;;;;4935535;28;20142;-75
2022/08/25 09:35:20;;;;;;;10.43;7.78;;;22.30;99.90;;;;;;4969116;28;20102;-75
2022/08/25 09:38:00;;;;;;;10.30;8.50;;;22.40;99.90;;;;;;4965073;28;20054;-75
2022/08/25 09:40:33;;;;;;;11.97;9.53;;;22.50;99.90;;;;;;4966365;28;20532;-74
2022/08/25 09:43:04;;;;;;;9.02;7.90;;;22.50;99.90;;;;;;4954217;28;20290;-75
2022/08/25 09:45:42;;;;;;;12.52;8.27;;;22.60;99.90;;;;;;4957058;28;20035;-76
2022/08/25 09:48:36;;;;;;;11.43;9.07;;;22.60;99.90;;;;;;5022922;28;20029;-76
2022/08/25 09:51:24;;;;;;;11.00;8.68;;;22.70;99.90;;;;;;5031610;28;20115;-75
2022/08/25 09:54:17;;;;;;;14.98;10.23;;;22.70;99.90;;;;;;5046041;28;20140;-75
2022/08/25 09:56:52;;;;;;;15.75;12.07;;;22.70;99.90;;;;;;5028306;28;20451;-76
2022/08/25 09:59:35;;;;;;;12.45;10.02;;;22.60;99.90;;;;;;5047115;28;20106;-75
2022/08/25 10:02:20;;;;;;;11.98;10.23;;;22.50;99.90;;;;;;5046094;28;20029;-76
2022/08/25 10:04:46;;;;;;;15.50;9.85;;;22.50;99.90;;;;;;5027125;28;20037;-75
2022/08/25 10:07:28;;;;;;;15.07;11.18;;;22.50;99.90;;;;;;5048411;28;20511;-75
2022/08/25 10:10:16;;;;;;;12.35;10.57;;;22.50;99.90;;;;;;5027142;28;20045;-76
2022/08/25 10:12:45;;;;;;;12.18;10.50;;;22.60;99.90;;;;;;5042725;28;20523;-75
2022/08/25 10:15:36;;;;;;;12.65;10.32;;;22.60;99.90;;;;;;5045781;28;20033;-75
2022/08/25 10:18:25;;;;;;;13.55;8.90;;;22.70;99.90;;;;;;5027041;28;20505;-75
2022/08/25 10:21:03;;;;;;;13.57;10.52;;;22.80;99.90;;;;;;5045114;28;20484;-75
2022/08/25 10:23:30;;;;;;;14.50;10.32;;;22.90;99.90;;;;;;5045774;28;20112;-74
2022/08/25 10:26:02;;;;;;;12.65;9.60;;;22.90;99.90;;;;;;5026816;28;20036;-77
2022/08/25 10:28:37;;;;;;;16.35;10.95;;;23.10;99.90;;;;;;5012500;28;20136;-71
2022/08/25 10:31:14;;;;;;;18.67;11.13;;;23.10;99.90;;;;;;5046566;28;20037;-72
2022/08/25 10:34:10;;;;;;;12.55;9.70;;;23.10;99.90;;;;;;5026680;28;20104;-74
2022/08/25 10:37:08;;;;;;;12.73;9.68;;;23.20;99.90;;;;;;5048311;28;20025;-73
2022/08/25 10:39:56;;;;;;;12.05;9.25;;;23.30;99.90;;;;;;5010420;28;20037;-72
2022/08/25 10:42:43;;;;;;;10.75;9.13;;;23.30;99.90;;;;;;5047960;28;20031;-73
2022/08/25 10:48:33;;;;;;;10.60;8.48;;;23.40;99.90;;;;;;5048238;28;20116;-73
2022/08/25 10:51:34;;;;;;;11.23;8.00;;;23.60;99.90;;;;;;5012910;28;20079;-72
2022/08/25 10:54:24;;;;;;;11.98;9.30;;;23.60;99.90;;;;;;4994113;28;20033;-72
2022/08/25 10:57:00;;;;;;;8.95;8.00;;;23.60;99.90;;;;;;5048704;28;20480;-73
2022/08/25 10:59:38;;;;;;;11.23;7.82;;;23.70;99.90;;;;;;5015123;28;20497;-72
2022/08/25 11:02:18;;;;;;;8.70;7.80;;;23.90;99.90;;;;;;5049628;28;20028;-74
2022/08/25 11:05:05;;;;;;;9.93;8.18;;;23.90;99.90;;;;;;5032661;28;20359;-73
2022/08/25 11:07:43;;;;;;;12.68;7.65;;;24.00;99.90;;;;;;5049841;28;20075;-74
2022/08/25 11:10:12;;;;;;;8.07;6.68;;;24.10;99.90;;;;;;5028950;28;20044;-75
2022/08/25 11:12:43;;;;;;;9.82;6.80;;;24.10;99.90;;;;;;5031227;28;20056;-73
2022/08/25 11:15:28;;;;;;;8.57;6.82;;;24.20;99.90;;;;;;5044979;28;20028;-73
2022/08/25 11:18:00;;;;;;;7.70;6.22;;;24.30;99.90;;;;;;5049613;28;20060;-74
2022/08/25 11:21:06;;;;;;;8.75;6.75;;;24.40;99.90;;;;;;5024971;28;20481;-74
2022/08/25 11:23:43;;;;;;;6.88;5.40;;;24.50;99.90;;;;;;5020842;28;20381;-75
2022/08/25 11:26:19;;;;;;;147.30;63.08;;;24.60;99.90;;;;;;5027279;28;20489;-74
2022/08/25 11:28:59;;;;;;;141.25;67.95;;;24.60;99.90;;;;;;5028768;28;20108;-76
2022/08/25 11:31:26;;;;;;;73.30;35.75;;;24.70;99.90;;;;;;5031287;28;20393;-74
2022/08/25 11:33:53;;;;;;;17.23;8.93;;;24.80;99.90;;;;;;5016501;28;20493;-73
2022/08/25 11:36:34;;;;;;;70.68;32.20;;;24.90;99.90;;;;;;5050339;28;20040;-75
2022/08/25 11:39:21;;;;;;;34.22;15.90;;;25.00;99.90;;;;;;5029275;28;20033;-74
2022/08/25 11:42:02;;;;;;;17.40;8.50;;;25.00;99.90;;;;;;5031505;28;20037;-72
2022/08/25 11:45:06;;;;;;;5.18;4.13;;;24.90;99.90;;;;;;5011685;28;20036;-71
2022/08/25 11:47:53;;;;;;;15.68;7.55;;;24.80;99.90;;;;;;5029820;28;20500;-69
2022/08/25 11:50:24;;;;;;;12.18;7.40;;;24.80;99.90;;;;;;5031448;28;20112;-71
2022/08/25 11:52:55;;;;;;;11.63;5.68;;;24.90;99.90;;;;;;5032085;28;20029;-75
2022/08/25 11:55:28;;;;;;;11.43;5.63;;;25.10;99.90;;;;;;5043933;28;20033;-77
2022/08/25 11:58:14;;;;;;;7.20;4.70;;;25.10;99.90;;;;;;5028640;28;20025;-77
2022/08/25 12:00:42;;;;;;;10.48;4.40;;;25.20;99.90;;;;;;5013693;28;20454;-77
2022/08/25 12:03:36;;;;;;;5.38;3.80;;;25.20;99.90;;;;;;5030957;28;20068;-77
2022/08/25 12:06:15;;;;;;;7.00;4.32;;;25.30;99.90;;;;;;5031280;28;20033;-76
2022/08/25 12:09:00;;;;;;;12.30;4.55;;;25.20;99.90;;;;;;5030373;28;20103;-76
2022/08/25 12:11:38;;;;;;;6.90;4.10;;;25.30;99.90;;;;;;5032960;28;20036;-77
2022/08/25 12:14:16;;;;;;;7.15;3.78;;;25.40;99.90;;;;;;5049528;28;20033;-76
2022/08/25 12:17:07;;;;;;;5.50;3.85;;;25.50;99.90;;;;;;5015025;28;20025;-76
2022/08/25 12:19:35;;;;;;;;;;;25.60;99.90;;;;;;5019582;28;20109;-77
2022/08/25 12:22:01;;;;;;;7.15;4.15;;;25.50;99.90;;;;;;5051937;28;19908;-77
2022/08/25 12:24:42;;;;;;;6.53;4.25;;;25.50;99.90;;;;;;5017790;28;20032;-77
2022/08/25 12:27:26;;;;;;;;;;;25.70;99.90;;;;;;5030866;28;20033;-77
2022/08/25 12:30:04;;;;;;;6.72;3.60;;;25.80;99.90;;;;;;5049104;28;20437;-76
2022/08/25 12:32:48;;;;;;;5.85;3.53;;;26.00;99.70;;;;;;5049754;28;20074;-76
2022/08/25 12:35:29;;;;;;;9.75;4.28;;;26.30;99.10;;;;;;5011254;28;20033;-77
2022/08/25 12:38:06;;;;;;;6.25;3.92;;;26.60;99.30;;;;;;5037728;28;20021;-78
2022/08/25 12:40:34;;;;;;;6.50;4.10;;;26.90;98.80;;;;;;5033410;28;20029;-77
2022/08/25 12:43:20;;;;;;;7.00;3.75;;;27.20;98.40;;;;;;5037246;28;20109;-77
2022/08/25 12:45:52;;;;;;;6.75;4.05;;;27.50;97.90;;;;;;5050311;28;20536;-77
2022/08/25 12:48:27;;;;;;;7.38;3.60;;;28.10;97.00;;;;;;5035189;28;20025;-78
2022/08/25 12:51:09;;;;;;;8.60;4.05;;;29.10;95.40;;;;;;5032297;28;20027;-77
2022/08/25 12:53:42;;;;;;;6.63;3.50;;;30.00;94.30;;;;;;5030479;28;20025;-77
2022/08/25 12:56:26;;;;;;;9.43;3.28;;;30.70;92.30;;;;;;5032723;28;20027;-79
2022/08/25 12:59:01;;;;;;;4.65;3.08;;;31.50;91.70;;;;;;5020325;28;20192;-78
2022/08/25 13:02:01;;;;;;;6.40;3.67;;;32.20;88.40;;;;;;5036466;28;20036;-78
2022/08/25 13:04:52;;;;;;;6.38;3.30;;;32.50;83.40;;;;;;5045512;28;20048;-78
2022/08/25 13:07:33;;;;;;;4.72;3.38;;;33.30;80.30;;;;;;5019198;28;20040;-78
2022/08/25 13:10:40;;;;;;;6.22;3.15;;;33.70;75.70;;;;;;5051305;28;20078;-78
2022/08/25 13:13:18;;;;;;;5.30;2.97;;;34.30;72.60;;;;;;4927947;28;20049;-78
2022/08/25 13:15:48;;;;;;;5.20;3.33;;;34.40;69.90;;;;;;5027742;28;20123;-76
2022/08/25 13:18:29;;;;;;;9.15;3.40;;;34.70;67.00;;;;;;5050727;28;20021;-76